sensor_id;sensor_type;location;lat;lon;timestamp;P1;durP1;ratioP1;P2;durP2;ratioP2
57337;SDS011;43173;50.980;18.204;2023-09-12T00:01:09;32.50;;;22.80;;
57337;SDS011;43173;50.980;18.204;2023-09-12T00:03:35;33.50;;;23.20;;
57337;SDS011;43173;50.980;18.204;2023-09-12T00:06:01;35.30;;;22.90;;
57337;SDS011;43173;50.980;18.204;2023-09-12T00:08:28;32.50;;;22.20;;
57337;SDS011;43173;50.980;18.204;2023-09-12T00:13:37;31.60;;;21.30;;
57337;SDS011;43173;50.980;18.204;2023-09-12T00:16:03;31.20;;;21.50;;
57337;SDS011;43173;50.980;18.204;2023-09-12T00:18:30;28.80;;;21.50;;
57337;SDS011;43173;50.980;18.204;2023-09-12T00:20:56;28.30;;;21.00;;
57337;SDS011;43173;50.980;18.204;2023-09-12T00:23:24;27.80;;;21.40;;
57337;SDS011;43173;50.980;18.204;2023-09-12T00:25:50;26.00;;;20.60;;
57337;SDS011;43173;50.980;18.204;2023-09-12T00:28:17;25.60;;;19.80;;
57337;SDS011;43173;50.980;18.204;2023-09-12T00:30:43;25.60;;;19.40;;
57337;SDS011;43173;50.980;18.204;2023-09-12T00:33:09;27.20;;;20.70;;
57337;SDS011;43173;50.980;18.204;2023-09-12T00:35:34;25.00;;;20.00;;
57337;SDS011;43173;50.980;18.204;2023-09-12T00:38:00;27.30;;;20.00;;
57337;SDS011;43173;50.980;18.204;2023-09-12T00:40:25;24.90;;;20.70;;
57337;SDS011;43173;50.980;18.204;2023-09-12T00:42:51;26.60;;;20.80;;
57337;SDS011;43173;50.980;18.204;2023-09-12T00:45:16;26.60;;;20.30;;
57337;SDS011;43173;50.980;18.204;2023-09-12T00:47:42;28.60;;;20.10;;
57337;SDS011;43173;50.980;18.204;2023-09-12T00:50:08;23.70;;;19.80;;
57337;SDS011;43173;50.980;18.204;2023-09-12T00:52:34;26.70;;;20.00;;
57337;SDS011;43173;50.980;18.204;2023-09-12T00:55:01;29.30;;;20.50;;
57337;SDS011;43173;50.980;18.204;2023-09-12T00:57:28;26.00;;;20.20;;
57337;SDS011;43173;50.980;18.204;2023-09-12T00:59:53;26.70;;;21.80;;
57337;SDS011;43173;50.980;18.204;2023-09-12T01:02:19;26.00;;;20.00;;
57337;SDS011;43173;50.980;18.204;2023-09-12T01:04:46;25.40;;;19.30;;
57337;SDS011;43173;50.980;18.204;2023-09-12T01:07:12;25.60;;;20.20;;
57337;SDS011;43173;50.980;18.204;2023-09-12T01:09:38;27.20;;;19.90;;
57337;SDS011;43173;50.980;18.204;2023-09-12T01:12:03;24.20;;;19.70;;
57337;SDS011;43173;50.980;18.204;2023-09-12T01:14:30;26.40;;;20.60;;
57337;SDS011;43173;50.980;18.204;2023-09-12T01:16:56;25.30;;;21.50;;
57337;SDS011;43173;50.980;18.204;2023-09-12T01:19:22;25.00;;;20.10;;
57337;SDS011;43173;50.980;18.204;2023-09-12T01:29:59;27.50;;;20.90;;
57337;SDS011;43173;50.980;18.204;2023-09-12T01:32:29;29.60;;;22.50;;
57337;SDS011;43173;50.980;18.204;2023-09-12T01:34:55;24.30;;;20.10;;
57337;SDS011;43173;50.980;18.204;2023-09-12T01:37:21;26.40;;;20.10;;
57337;SDS011;43173;50.980;18.204;2023-09-12T01:39:46;25.60;;;21.00;;
57337;SDS011;43173;50.980;18.204;2023-09-12T01:42:14;26.40;;;20.40;;
57337;SDS011;43173;50.980;18.204;2023-09-12T01:44:45;28.20;;;21.10;;
57337;SDS011;43173;50.980;18.204;2023-09-12T01:47:11;28.60;;;20.90;;
57337;SDS011;43173;50.980;18.204;2023-09-12T01:49:42;25.30;;;20.20;;
57337;SDS011;43173;50.980;18.204;2023-09-12T01:52:09;28.10;;;20.00;;
57337;SDS011;43173;50.980;18.204;2023-09-12T01:54:35;25.50;;;20.50;;
57337;SDS011;43173;50.980;18.204;2023-09-12T01:57:02;28.10;;;21.60;;
57337;SDS011;43173;50.980;18.204;2023-09-12T01:59:28;29.20;;;22.40;;
57337;SDS011;43173;50.980;18.204;2023-09-12T02:01:55;27.40;;;20.00;;
57337;SDS011;43173;50.980;18.204;2023-09-12T02:04:21;26.30;;;21.50;;
57337;SDS011;43173;50.980;18.204;2023-09-12T02:06:46;26.80;;;20.80;;
57337;SDS011;43173;50.980;18.204;2023-09-12T02:09:12;25.90;;;21.10;;
57337;SDS011;43173;50.980;18.204;2023-09-12T02:11:38;28.00;;;20.50;;
57337;SDS011;43173;50.980;18.204;2023-09-12T02:14:03;25.50;;;20.90;;
57337;SDS011;43173;50.980;18.204;2023-09-12T02:16:30;26.50;;;20.90;;
57337;SDS011;43173;50.980;18.204;2023-09-12T02:18:56;30.20;;;21.40;;
57337;SDS011;43173;50.980;18.204;2023-09-12T02:21:22;28.00;;;21.20;;
57337;SDS011;43173;50.980;18.204;2023-09-12T02:23:47;27.70;;;20.40;;
57337;SDS011;43173;50.980;18.204;2023-09-12T02:26:13;25.00;;;20.00;;
57337;SDS011;43173;50.980;18.204;2023-09-12T02:28:39;24.30;;;19.60;;
57337;SDS011;43173;50.980;18.204;2023-09-12T02:31:09;25.40;;;19.80;;
57337;SDS011;43173;50.980;18.204;2023-09-12T02:33:37;25.80;;;19.50;;
57337;SDS011;43173;50.980;18.204;2023-09-12T02:36:03;26.20;;;19.90;;
57337;SDS011;43173;50.980;18.204;2023-09-12T02:38:30;25.80;;;19.70;;
57337;SDS011;43173;50.980;18.204;2023-09-12T02:40:55;26.60;;;19.80;;
57337;SDS011;43173;50.980;18.204;2023-09-12T02:43:21;27.80;;;20.40;;
57337;SDS011;43173;50.980;18.204;2023-09-12T02:45:47;26.50;;;21.70;;
57337;SDS011;43173;50.980;18.204;2023-09-12T02:48:12;27.00;;;21.90;;
57337;SDS011;43173;50.980;18.204;2023-09-12T02:50:39;31.00;;;21.70;;
57337;SDS011;43173;50.980;18.204;2023-09-12T02:53:04;28.40;;;21.50;;
57337;SDS011;43173;50.980;18.204;2023-09-12T02:55:31;25.80;;;21.50;;
57337;SDS011;43173;50.980;18.204;2023-09-12T02:57:57;28.30;;;21.70;;
57337;SDS011;43173;50.980;18.204;2023-09-12T03:00:23;27.60;;;21.20;;
57337;SDS011;43173;50.980;18.204;2023-09-12T03:02:49;27.40;;;21.20;;
57337;SDS011;43173;50.980;18.204;2023-09-12T03:05:14;26.40;;;20.80;;
57337;SDS011;43173;50.980;18.204;2023-09-12T03:07:40;29.00;;;21.80;;
57337;SDS011;43173;50.980;18.204;2023-09-12T03:10:06;29.00;;;21.50;;
57337;SDS011;43173;50.980;18.204;2023-09-12T03:12:32;29.10;;;21.60;;
57337;SDS011;43173;50.980;18.204;2023-09-12T03:14:58;28.90;;;21.80;;
57337;SDS011;43173;50.980;18.204;2023-09-12T03:17:23;31.40;;;23.20;;
57337;SDS011;43173;50.980;18.204;2023-09-12T03:19:49;31.30;;;22.80;;
57337;SDS011;43173;50.980;18.204;2023-09-12T03:22:14;29.10;;;22.50;;
57337;SDS011;43173;50.980;18.204;2023-09-12T03:24:40;30.80;;;22.40;;
57337;SDS011;43173;50.980;18.204;2023-09-12T03:27:06;29.00;;;21.60;;
57337;SDS011;43173;50.980;18.204;2023-09-12T03:29:33;30.60;;;22.50;;
57337;SDS011;43173;50.980;18.204;2023-09-12T03:31:58;29.70;;;22.00;;
57337;SDS011;43173;50.980;18.204;2023-09-12T03:34:24;30.60;;;22.00;;
57337;SDS011;43173;50.980;18.204;2023-09-12T03:36:50;34.60;;;22.70;;
57337;SDS011;43173;50.980;18.204;2023-09-12T03:39:15;31.70;;;23.00;;
57337;SDS011;43173;50.980;18.204;2023-09-12T03:41:41;31.60;;;22.40;;
57337;SDS011;43173;50.980;18.204;2023-09-12T03:44:06;34.90;;;22.80;;
57337;SDS011;43173;50.980;18.204;2023-09-12T03:46:32;30.30;;;23.00;;
57337;SDS011;43173;50.980;18.204;2023-09-12T03:48:58;31.20;;;23.10;;
57337;SDS011;43173;50.980;18.204;2023-09-12T03:51:23;30.30;;;23.10;;
57337;SDS011;43173;50.980;18.204;2023-09-12T03:53:49;32.30;;;23.10;;
57337;SDS011;43173;50.980;18.204;2023-09-12T03:56:15;30.70;;;22.60;;
57337;SDS011;43173;50.980;18.204;2023-09-12T03:58:41;33.00;;;23.30;;
57337;SDS011;43173;50.980;18.204;2023-09-12T04:01:07;34.30;;;23.70;;
57337;SDS011;43173;50.980;18.204;2023-09-12T04:03:33;31.10;;;22.80;;
57337;SDS011;43173;50.980;18.204;2023-09-12T04:05:58;32.50;;;23.40;;
57337;SDS011;43173;50.980;18.204;2023-09-12T04:08:24;32.00;;;22.50;;
57337;SDS011;43173;50.980;18.204;2023-09-12T04:10:49;32.50;;;22.80;;
57337;SDS011;43173;50.980;18.204;2023-09-12T04:13:15;30.50;;;22.40;;
57337;SDS011;43173;50.980;18.204;2023-09-12T04:15:41;37.00;;;24.20;;
57337;SDS011;43173;50.980;18.204;2023-09-12T04:18:08;29.80;;;22.50;;
57337;SDS011;43173;50.980;18.204;2023-09-12T04:20:34;32.80;;;24.00;;
57337;SDS011;43173;50.980;18.204;2023-09-12T04:23:02;29.00;;;22.80;;
57337;SDS011;43173;50.980;18.204;2023-09-12T04:25:29;33.40;;;23.30;;
57337;SDS011;43173;50.980;18.204;2023-09-12T04:27:55;31.50;;;23.50;;
57337;SDS011;43173;50.980;18.204;2023-09-12T04:30:20;33.30;;;24.60;;
57337;SDS011;43173;50.980;18.204;2023-09-12T04:32:46;32.50;;;24.70;;
57337;SDS011;43173;50.980;18.204;2023-09-12T04:35:12;29.40;;;23.00;;
57337;SDS011;43173;50.980;18.204;2023-09-12T04:37:38;32.50;;;23.30;;
57337;SDS011;43173;50.980;18.204;2023-09-12T04:40:04;31.40;;;22.10;;
57337;SDS011;43173;50.980;18.204;2023-09-12T04:42:32;29.20;;;21.70;;
57337;SDS011;43173;50.980;18.204;2023-09-12T04:44:57;29.60;;;22.80;;
57337;SDS011;43173;50.980;18.204;2023-09-12T04:47:23;33.00;;;22.80;;
57337;SDS011;43173;50.980;18.204;2023-09-12T04:49:49;33.50;;;23.30;;
57337;SDS011;43173;50.980;18.204;2023-09-12T04:52:14;30.40;;;22.40;;
57337;SDS011;43173;50.980;18.204;2023-09-12T04:54:40;28.70;;;21.60;;
57337;SDS011;43173;50.980;18.204;2023-09-12T04:57:06;32.20;;;22.60;;
57337;SDS011;43173;50.980;18.204;2023-09-12T04:59:32;33.80;;;22.70;;
57337;SDS011;43173;50.980;18.204;2023-09-12T05:01:58;29.20;;;21.90;;
57337;SDS011;43173;50.980;18.204;2023-09-12T05:04:23;31.60;;;22.40;;
57337;SDS011;43173;50.980;18.204;2023-09-12T05:06:49;28.40;;;21.60;;
57337;SDS011;43173;50.980;18.204;2023-09-12T05:09:14;28.20;;;21.60;;
57337;SDS011;43173;50.980;18.204;2023-09-12T05:11:41;27.80;;;21.00;;
57337;SDS011;43173;50.980;18.204;2023-09-12T05:14:07;30.50;;;20.80;;
57337;SDS011;43173;50.980;18.204;2023-09-12T05:16:32;26.10;;;20.90;;
57337;SDS011;43173;50.980;18.204;2023-09-12T05:19:00;26.10;;;19.80;;
57337;SDS011;43173;50.980;18.204;2023-09-12T05:21:25;27.60;;;20.80;;
57337;SDS011;43173;50.980;18.204;2023-09-12T05:23:51;26.70;;;20.30;;
57337;SDS011;43173;50.980;18.204;2023-09-12T05:26:16;26.30;;;19.90;;
57337;SDS011;43173;50.980;18.204;2023-09-12T05:28:42;29.50;;;21.90;;
57337;SDS011;43173;50.980;18.204;2023-09-12T05:31:08;29.80;;;22.00;;
57337;SDS011;43173;50.980;18.204;2023-09-12T05:33:33;28.70;;;21.40;;
57337;SDS011;43173;50.980;18.204;2023-09-12T05:36:00;28.30;;;21.70;;
57337;SDS011;43173;50.980;18.204;2023-09-12T05:38:26;29.90;;;21.00;;
57337;SDS011;43173;50.980;18.204;2023-09-12T05:40:51;31.10;;;20.70;;
57337;SDS011;43173;50.980;18.204;2023-09-12T05:43:18;28.50;;;20.20;;
57337;SDS011;43173;50.980;18.204;2023-09-12T05:45:43;29.00;;;19.70;;
57337;SDS011;43173;50.980;18.204;2023-09-12T05:48:09;28.20;;;20.20;;
57337;SDS011;43173;50.980;18.204;2023-09-12T05:50:36;27.10;;;19.60;;
57337;SDS011;43173;50.980;18.204;2023-09-12T05:53:02;31.30;;;19.90;;
57337;SDS011;43173;50.980;18.204;2023-09-12T05:55:28;30.20;;;20.20;;
57337;SDS011;43173;50.980;18.204;2023-09-12T05:57:53;26.80;;;19.50;;
57337;SDS011;43173;50.980;18.204;2023-09-12T06:00:19;31.80;;;20.30;;
57337;SDS011;43173;50.980;18.204;2023-09-12T06:02:46;29.40;;;20.50;;
57337;SDS011;43173;50.980;18.204;2023-09-12T06:05:13;28.80;;;20.50;;
57337;SDS011;43173;50.980;18.204;2023-09-12T06:07:39;34.20;;;20.60;;
57337;SDS011;43173;50.980;18.204;2023-09-12T06:10:06;31.10;;;19.40;;
57337;SDS011;43173;50.980;18.204;2023-09-12T06:12:32;26.80;;;20.00;;
57337;SDS011;43173;50.980;18.204;2023-09-12T06:15:01;26.70;;;20.00;;
57337;SDS011;43173;50.980;18.204;2023-09-12T06:17:30;31.00;;;20.50;;
57337;SDS011;43173;50.980;18.204;2023-09-12T06:19:57;28.30;;;19.10;;
57337;SDS011;43173;50.980;18.204;2023-09-12T06:22:23;30.70;;;19.30;;
57337;SDS011;43173;50.980;18.204;2023-09-12T06:24:51;33.40;;;19.60;;
57337;SDS011;43173;50.980;18.204;2023-09-12T06:27:17;29.00;;;18.10;;
57337;SDS011;43173;50.980;18.204;2023-09-12T06:29:46;31.30;;;18.20;;
57337;SDS011;43173;50.980;18.204;2023-09-12T06:32:14;27.00;;;18.60;;
57337;SDS011;43173;50.980;18.204;2023-09-12T06:34:40;26.50;;;18.40;;
57337;SDS011;43173;50.980;18.204;2023-09-12T06:37:07;24.10;;;18.80;;
57337;SDS011;43173;50.980;18.204;2023-09-12T06:39:32;30.20;;;19.90;;
57337;SDS011;43173;50.980;18.204;2023-09-12T06:41:58;26.50;;;19.10;;
57337;SDS011;43173;50.980;18.204;2023-09-12T06:44:24;28.50;;;20.50;;
57337;SDS011;43173;50.980;18.204;2023-09-12T06:46:49;35.30;;;19.90;;
57337;SDS011;43173;50.980;18.204;2023-09-12T06:49:15;27.20;;;19.80;;
57337;SDS011;43173;50.980;18.204;2023-09-12T06:51:43;34.50;;;20.30;;
57337;SDS011;43173;50.980;18.204;2023-09-12T06:54:09;30.80;;;20.50;;
57337;SDS011;43173;50.980;18.204;2023-09-12T06:56:34;26.40;;;19.90;;
57337;SDS011;43173;50.980;18.204;2023-09-12T06:59:03;30.70;;;19.10;;
57337;SDS011;43173;50.980;18.204;2023-09-12T07:01:29;25.70;;;18.50;;
57337;SDS011;43173;50.980;18.204;2023-09-12T07:03:55;26.50;;;19.20;;
57337;SDS011;43173;50.980;18.204;2023-09-12T07:06:21;23.90;;;18.30;;
57337;SDS011;43173;50.980;18.204;2023-09-12T07:08:48;23.80;;;19.10;;
57337;SDS011;43173;50.980;18.204;2023-09-12T07:11:14;22.90;;;18.70;;
57337;SDS011;43173;50.980;18.204;2023-09-12T07:13:40;22.90;;;17.70;;
57337;SDS011;43173;50.980;18.204;2023-09-12T07:16:07;24.70;;;19.10;;
57337;SDS011;43173;50.980;18.204;2023-09-12T07:18:32;22.80;;;18.50;;
57337;SDS011;43173;50.980;18.204;2023-09-12T07:20:59;22.60;;;17.60;;
57337;SDS011;43173;50.980;18.204;2023-09-12T07:23:25;20.60;;;17.60;;
57337;SDS011;43173;50.980;18.204;2023-09-12T07:25:51;22.40;;;16.60;;
57337;SDS011;43173;50.980;18.204;2023-09-12T07:28:17;20.20;;;17.20;;
57337;SDS011;43173;50.980;18.204;2023-09-12T07:30:45;25.00;;;17.90;;
57337;SDS011;43173;50.980;18.204;2023-09-12T07:33:11;23.70;;;17.80;;
57337;SDS011;43173;50.980;18.204;2023-09-12T07:35:37;26.90;;;18.00;;
57337;SDS011;43173;50.980;18.204;2023-09-12T07:38:03;25.00;;;17.20;;
57337;SDS011;43173;50.980;18.204;2023-09-12T07:40:29;22.70;;;17.20;;
57337;SDS011;43173;50.980;18.204;2023-09-12T07:42:54;24.70;;;17.70;;
57337;SDS011;43173;50.980;18.204;2023-09-12T07:45:20;23.70;;;17.70;;
57337;SDS011;43173;50.980;18.204;2023-09-12T07:47:46;22.00;;;16.50;;
57337;SDS011;43173;50.980;18.204;2023-09-12T07:50:13;26.70;;;17.20;;
57337;SDS011;43173;50.980;18.204;2023-09-12T07:52:39;25.20;;;17.20;;
57337;SDS011;43173;50.980;18.204;2023-09-12T07:55:04;20.60;;;16.10;;
57337;SDS011;43173;50.980;18.204;2023-09-12T07:57:30;26.90;;;16.90;;
57337;SDS011;43173;50.980;18.204;2023-09-12T07:59:56;23.40;;;16.00;;
57337;SDS011;43173;50.980;18.204;2023-09-12T08:02:22;22.00;;;14.80;;
57337;SDS011;43173;50.980;18.204;2023-09-12T08:04:48;23.80;;;17.50;;
57337;SDS011;43173;50.980;18.204;2023-09-12T08:07:16;21.90;;;16.50;;
57337;SDS011;43173;50.980;18.204;2023-09-12T08:12:26;22.90;;;17.40;;
57337;SDS011;43173;50.980;18.204;2023-09-12T08:14:53;23.60;;;17.50;;
57337;SDS011;43173;50.980;18.204;2023-09-12T08:17:22;21.50;;;17.60;;
57337;SDS011;43173;50.980;18.204;2023-09-12T08:19:49;23.00;;;16.60;;
57337;SDS011;43173;50.980;18.204;2023-09-12T08:22:14;21.00;;;16.10;;
57337;SDS011;43173;50.980;18.204;2023-09-12T08:24:40;18.50;;;16.00;;
57337;SDS011;43173;50.980;18.204;2023-09-12T08:27:06;20.70;;;16.90;;
57337;SDS011;43173;50.980;18.204;2023-09-12T08:29:34;28.70;;;17.00;;
57337;SDS011;43173;50.980;18.204;2023-09-12T08:32:00;22.80;;;15.30;;
57337;SDS011;43173;50.980;18.204;2023-09-12T08:34:26;18.40;;;13.50;;
57337;SDS011;43173;50.980;18.204;2023-09-12T08:36:52;16.60;;;13.50;;
57337;SDS011;43173;50.980;18.204;2023-09-12T08:39:23;17.00;;;12.70;;
57337;SDS011;43173;50.980;18.204;2023-09-12T08:41:50;20.00;;;12.50;;
57337;SDS011;43173;50.980;18.204;2023-09-12T08:44:17;16.50;;;12.30;;
57337;SDS011;43173;50.980;18.204;2023-09-12T08:46:43;18.00;;;12.30;;
57337;SDS011;43173;50.980;18.204;2023-09-12T08:49:10;14.50;;;11.80;;
57337;SDS011;43173;50.980;18.204;2023-09-12T08:51:40;13.40;;;11.00;;
57337;SDS011;43173;50.980;18.204;2023-09-12T08:54:06;15.40;;;10.60;;
57337;SDS011;43173;50.980;18.204;2023-09-12T08:56:35;16.70;;;11.50;;
57337;SDS011;43173;50.980;18.204;2023-09-12T08:59:02;14.10;;;10.20;;
57337;SDS011;43173;50.980;18.204;2023-09-12T09:01:32;15.20;;;9.10;;
57337;SDS011;43173;50.980;18.204;2023-09-12T09:03:58;18.80;;;11.90;;
57337;SDS011;43173;50.980;18.204;2023-09-12T09:06:25;18.20;;;11.70;;
57337;SDS011;43173;50.980;18.204;2023-09-12T09:08:51;12.50;;;10.10;;
57337;SDS011;43173;50.980;18.204;2023-09-12T09:11:17;13.40;;;10.10;;
57337;SDS011;43173;50.980;18.204;2023-09-12T09:13:42;11.10;;;9.10;;
57337;SDS011;43173;50.980;18.204;2023-09-12T09:16:15;11.60;;;9.50;;
57337;SDS011;43173;50.980;18.204;2023-09-12T09:21:31;11.60;;;8.80;;
57337;SDS011;43173;50.980;18.204;2023-09-12T09:23:59;11.40;;;8.20;;
57337;SDS011;43173;50.980;18.204;2023-09-12T09:29:15;12.20;;;8.50;;
57337;SDS011;43173;50.980;18.204;2023-09-12T09:31:45;12.30;;;9.20;;
57337;SDS011;43173;50.980;18.204;2023-09-12T09:34:13;11.10;;;8.40;;
57337;SDS011;43173;50.980;18.204;2023-09-12T09:36:43;9.70;;;8.70;;
57337;SDS011;43173;50.980;18.204;2023-09-12T09:39:10;10.20;;;8.40;;
57337;SDS011;43173;50.980;18.204;2023-09-12T09:41:36;11.60;;;8.70;;
57337;SDS011;43173;50.980;18.204;2023-09-12T09:44:03;12.30;;;8.80;;
57337;SDS011;43173;50.980;18.204;2023-09-12T09:46:31;12.50;;;8.30;;
57337;SDS011;43173;50.980;18.204;2023-09-12T09:48:57;9.70;;;8.30;;
57337;SDS011;43173;50.980;18.204;2023-09-12T09:51:25;10.70;;;8.50;;
57337;SDS011;43173;50.980;18.204;2023-09-12T09:53:51;10.90;;;8.10;;
57337;SDS011;43173;50.980;18.204;2023-09-12T09:56:18;9.70;;;8.70;;
57337;SDS011;43173;50.980;18.204;2023-09-12T10:01:28;12.60;;;8.90;;
57337;SDS011;43173;50.980;18.204;2023-09-12T10:03:58;9.90;;;8.60;;
57337;SDS011;43173;50.980;18.204;2023-09-12T10:08:51;10.90;;;8.30;;
57337;SDS011;43173;50.980;18.204;2023-09-12T10:11:18;11.00;;;8.10;;
57337;SDS011;43173;50.980;18.204;2023-09-12T10:13:57;9.60;;;8.60;;
57337;SDS011;43173;50.980;18.204;2023-09-12T10:16:27;10.30;;;8.00;;
57337;SDS011;43173;50.980;18.204;2023-09-12T10:19:02;11.20;;;8.60;;
57337;SDS011;43173;50.980;18.204;2023-09-12T10:24:44;12.30;;;8.40;;
57337;SDS011;43173;50.980;18.204;2023-09-12T10:27:11;9.40;;;8.20;;
57337;SDS011;43173;50.980;18.204;2023-09-12T10:29:38;10.10;;;8.50;;
57337;SDS011;43173;50.980;18.204;2023-09-12T10:32:03;10.90;;;8.30;;
57337;SDS011;43173;50.980;18.204;2023-09-12T10:34:30;11.40;;;7.80;;
57337;SDS011;43173;50.980;18.204;2023-09-12T10:37:00;12.90;;;7.80;;
57337;SDS011;43173;50.980;18.204;2023-09-12T10:39:27;9.60;;;7.80;;
57337;SDS011;43173;50.980;18.204;2023-09-12T10:41:54;9.40;;;7.80;;
57337;SDS011;43173;50.980;18.204;2023-09-12T10:44:20;9.00;;;8.10;;
57337;SDS011;43173;50.980;18.204;2023-09-12T10:46:46;10.80;;;8.20;;
57337;SDS011;43173;50.980;18.204;2023-09-12T10:49:14;8.50;;;7.60;;
57337;SDS011;43173;50.980;18.204;2023-09-12T10:51:41;11.20;;;8.20;;
57337;SDS011;43173;50.980;18.204;2023-09-12T10:54:07;9.10;;;8.20;;
57337;SDS011;43173;50.980;18.204;2023-09-12T10:56:34;8.50;;;7.20;;
57337;SDS011;43173;50.980;18.204;2023-09-12T11:01:41;10.30;;;8.60;;
57337;SDS011;43173;50.980;18.204;2023-09-12T11:06:55;8.80;;;7.90;;
57337;SDS011;43173;50.980;18.204;2023-09-12T11:21:10;8.30;;;7.50;;
57337;SDS011;43173;50.980;18.204;2023-09-12T11:23:35;9.40;;;8.10;;
57337;SDS011;43173;50.980;18.204;2023-09-12T11:26:03;9.20;;;7.80;;
57337;SDS011;43173;50.980;18.204;2023-09-12T11:28:32;8.20;;;7.40;;
57337;SDS011;43173;50.980;18.204;2023-09-12T11:30:58;8.80;;;7.90;;
57337;SDS011;43173;50.980;18.204;2023-09-12T11:33:24;10.30;;;7.60;;
57337;SDS011;43173;50.980;18.204;2023-09-12T11:35:54;9.60;;;7.60;;
57337;SDS011;43173;50.980;18.204;2023-09-12T11:38:27;8.70;;;7.80;;
57337;SDS011;43173;50.980;18.204;2023-09-12T11:40:54;8.80;;;7.80;;
57337;SDS011;43173;50.980;18.204;2023-09-12T11:43:24;8.40;;;7.50;;
57337;SDS011;43173;50.980;18.204;2023-09-12T11:45:52;9.90;;;7.70;;
57337;SDS011;43173;50.980;18.204;2023-09-12T11:48:19;9.90;;;7.30;;
57337;SDS011;43173;50.980;18.204;2023-09-12T11:50:52;9.80;;;7.50;;
57337;SDS011;43173;50.980;18.204;2023-09-12T11:53:20;8.50;;;7.50;;
57337;SDS011;43173;50.980;18.204;2023-09-12T11:55:48;10.00;;;7.60;;
57337;SDS011;43173;50.980;18.204;2023-09-12T11:58:17;8.30;;;7.50;;
57337;SDS011;43173;50.980;18.204;2023-09-12T12:00:44;8.90;;;8.00;;
57337;SDS011;43173;50.980;18.204;2023-09-12T12:03:11;9.20;;;7.90;;
57337;SDS011;43173;50.980;18.204;2023-09-12T12:05:37;8.30;;;7.40;;
57337;SDS011;43173;50.980;18.204;2023-09-12T12:08:03;10.70;;;7.90;;
57337;SDS011;43173;50.980;18.204;2023-09-12T12:10:29;8.30;;;7.50;;
57337;SDS011;43173;50.980;18.204;2023-09-12T12:12:55;8.00;;;7.20;;
57337;SDS011;43173;50.980;18.204;2023-09-12T12:15:21;10.30;;;7.60;;
57337;SDS011;43173;50.980;18.204;2023-09-12T12:17:47;8.60;;;7.70;;
57337;SDS011;43173;50.980;18.204;2023-09-12T12:20:13;8.80;;;7.70;;
57337;SDS011;43173;50.980;18.204;2023-09-12T12:22:39;7.80;;;7.00;;
57337;SDS011;43173;50.980;18.204;2023-09-12T12:25:14;8.70;;;7.80;;
57337;SDS011;43173;50.980;18.204;2023-09-12T12:27:41;8.80;;;7.80;;
57337;SDS011;43173;50.980;18.204;2023-09-12T12:30:08;8.70;;;7.70;;
57337;SDS011;43173;50.980;18.204;2023-09-12T12:32:42;8.10;;;7.20;;
57337;SDS011;43173;50.980;18.204;2023-09-12T12:35:09;7.70;;;6.80;;
57337;SDS011;43173;50.980;18.204;2023-09-12T12:37:35;7.60;;;6.90;;
57337;SDS011;43173;50.980;18.204;2023-09-12T12:40:02;8.10;;;7.30;;
57337;SDS011;43173;50.980;18.204;2023-09-12T12:42:34;7.80;;;7.10;;
57337;SDS011;43173;50.980;18.204;2023-09-12T12:45:10;8.40;;;7.50;;
57337;SDS011;43173;50.980;18.204;2023-09-12T12:47:37;9.70;;;7.10;;
57337;SDS011;43173;50.980;18.204;2023-09-12T12:50:06;9.10;;;7.70;;
57337;SDS011;43173;50.980;18.204;2023-09-12T12:52:33;7.70;;;6.90;;
57337;SDS011;43173;50.980;18.204;2023-09-12T12:55:15;9.80;;;7.70;;
57337;SDS011;43173;50.980;18.204;2023-09-12T12:57:42;7.70;;;6.80;;
57337;SDS011;43173;50.980;18.204;2023-09-12T13:00:09;9.70;;;7.40;;
57337;SDS011;43173;50.980;18.204;2023-09-12T13:02:40;7.80;;;7.00;;
57337;SDS011;43173;50.980;18.204;2023-09-12T13:05:19;8.10;;;7.40;;
57337;SDS011;43173;50.980;18.204;2023-09-12T13:07:45;8.70;;;6.90;;
57337;SDS011;43173;50.980;18.204;2023-09-12T13:10:11;9.40;;;7.10;;
57337;SDS011;43173;50.980;18.204;2023-09-12T13:12:37;8.00;;;6.90;;
57337;SDS011;43173;50.980;18.204;2023-09-12T13:15:05;7.20;;;6.60;;
57337;SDS011;43173;50.980;18.204;2023-09-12T13:17:31;8.70;;;6.70;;
57337;SDS011;43173;50.980;18.204;2023-09-12T13:19:57;7.60;;;6.90;;
57337;SDS011;43173;50.980;18.204;2023-09-12T13:22:22;9.40;;;7.40;;
57337;SDS011;43173;50.980;18.204;2023-09-12T13:24:48;8.30;;;7.20;;
57337;SDS011;43173;50.980;18.204;2023-09-12T13:27:13;8.70;;;7.00;;
57337;SDS011;43173;50.980;18.204;2023-09-12T13:29:39;8.30;;;7.10;;
57337;SDS011;43173;50.980;18.204;2023-09-12T13:32:05;8.80;;;6.60;;
57337;SDS011;43173;50.980;18.204;2023-09-12T13:34:31;9.70;;;7.10;;
57337;SDS011;43173;50.980;18.204;2023-09-12T13:36:56;8.90;;;7.60;;
57337;SDS011;43173;50.980;18.204;2023-09-12T13:39:24;10.10;;;7.20;;
57337;SDS011;43173;50.980;18.204;2023-09-12T13:41:50;9.60;;;7.70;;
57337;SDS011;43173;50.980;18.204;2023-09-12T13:44:16;9.40;;;7.30;;
57337;SDS011;43173;50.980;18.204;2023-09-12T13:46:42;8.90;;;7.20;;
57337;SDS011;43173;50.980;18.204;2023-09-12T13:49:10;7.50;;;6.60;;
57337;SDS011;43173;50.980;18.204;2023-09-12T13:51:35;7.40;;;6.70;;
57337;SDS011;43173;50.980;18.204;2023-09-12T13:54:01;8.40;;;7.60;;
57337;SDS011;43173;50.980;18.204;2023-09-12T13:56:28;8.30;;;7.10;;
57337;SDS011;43173;50.980;18.204;2023-09-12T13:58:53;12.10;;;7.50;;
57337;SDS011;43173;50.980;18.204;2023-09-12T14:01:20;8.70;;;7.90;;
57337;SDS011;43173;50.980;18.204;2023-09-12T14:03:46;10.00;;;7.20;;
57337;SDS011;43173;50.980;18.204;2023-09-12T14:06:11;10.80;;;7.50;;
57337;SDS011;43173;50.980;18.204;2023-09-12T14:08:38;9.40;;;7.80;;
57337;SDS011;43173;50.980;18.204;2023-09-12T14:11:04;8.50;;;7.70;;
57337;SDS011;43173;50.980;18.204;2023-09-12T14:13:29;8.70;;;7.90;;
57337;SDS011;43173;50.980;18.204;2023-09-12T14:15:55;8.40;;;7.60;;
57337;SDS011;43173;50.980;18.204;2023-09-12T14:18:20;10.30;;;7.50;;
57337;SDS011;43173;50.980;18.204;2023-09-12T14:20:46;9.00;;;7.80;;
57337;SDS011;43173;50.980;18.204;2023-09-12T14:23:11;8.60;;;7.50;;
57337;SDS011;43173;50.980;18.204;2023-09-12T14:25:37;8.90;;;8.00;;
57337;SDS011;43173;50.980;18.204;2023-09-12T14:28:03;8.70;;;7.90;;
57337;SDS011;43173;50.980;18.204;2023-09-12T14:30:30;8.50;;;7.60;;
57337;SDS011;43173;50.980;18.204;2023-09-12T14:33:01;12.40;;;8.00;;
57337;SDS011;43173;50.980;18.204;2023-09-12T14:35:28;9.00;;;8.10;;
57337;SDS011;43173;50.980;18.204;2023-09-12T14:37:54;11.00;;;7.90;;
57337;SDS011;43173;50.980;18.204;2023-09-12T14:40:20;9.10;;;8.10;;
57337;SDS011;43173;50.980;18.204;2023-09-12T14:42:45;8.70;;;7.30;;
57337;SDS011;43173;50.980;18.204;2023-09-12T14:45:11;8.30;;;7.00;;
57337;SDS011;43173;50.980;18.204;2023-09-12T14:47:37;8.80;;;7.20;;
57337;SDS011;43173;50.980;18.204;2023-09-12T14:50:02;8.10;;;7.20;;
57337;SDS011;43173;50.980;18.204;2023-09-12T14:52:28;10.30;;;7.40;;
57337;SDS011;43173;50.980;18.204;2023-09-12T14:54:55;9.90;;;7.20;;
57337;SDS011;43173;50.980;18.204;2023-09-12T14:57:23;8.20;;;7.40;;